Ana Sayfa
METAR-TAF:

METAR-TAF

Havaalanları :

Ordu-Giresun Havalimanı

Ordu, Türkiye

Enlem: 40-58-00N, Boylam: 38-04-48E, yükseklik: 5 m

Güncel hava durumu gözlemi

Rapor saat 23:50 UTC de 23 dakika önce yapıldı.
Rüzgar değişken yönden 1 kt
Sıcaklık 5°C
Nem 70%
Basınç 1012 hPa
Görüş mesafesi 10 km veya daha fazla
1500 m altında bulut yok ve kümülonimbus yok

METAR: LTCB 232350Z VRB01KT CAVOK 05/00 Q1012

Saat: 03:13 (00:13 UTC)

Tahmin

Rapor saat 22:40 UTC de 1 saat ve 33 dakika önce yapıldı.
Ayın 24'si saat 00 UTC'den ayın 24'si saat 09 UTC'ye kadar geçerli Tahmin
Rüzgar değişken yönden 2 kt
Görüş mesafesi 10 km veya daha fazla
1500 m altında bulut yok ve kümülonimbus yok

TAF: LTCB 232240Z 2400/2409 VRB02KT CAVOK

4.000'den fazla havaalanı için hava durumu gözlemleri ve tahminleri (METAR ve TAF raporları).

Kullanılabilir istasyonlar harita üzerinde sarı ve kırmızı noktalarla gösterilir.

İstasyonun adını görmek için fareyi noktanın üzerinde gezdirin.

Sonrasında hava gözlem ve tahminlerini görmek için tıklayın.

Haritayı değiştirmek için: yaklaştırmak için siyah artı işaretli yeşil düğmeye ve uzaklaştırmak için de eksi işaretli düğmeye hızla tıklayın; bitişik haritalar için yeşil okları kullanın.


METAR-TAF: